sensor_id;sensor_type;location;lat;lon;timestamp;temperature;humidity
41944;DHT22;27636;52.610;13.244;2022-11-03T00:01:38;3.80;99.90
41944;DHT22;27636;52.610;13.244;2022-11-03T00:06:44;3.80;99.90
41944;DHT22;27636;52.610;13.244;2022-11-03T00:11:49;3.70;99.90
41944;DHT22;27636;52.610;13.244;2022-11-03T00:16:53;3.70;99.90
41944;DHT22;27636;52.610;13.244;2022-11-03T00:21:57;3.60;99.90
41944;DHT22;27636;52.610;13.244;2022-11-03T00:27:01;3.60;99.90
41944;DHT22;27636;52.610;13.244;2022-11-03T00:32:05;3.60;99.90
41944;DHT22;27636;52.610;13.244;2022-11-03T00:37:09;3.50;99.90
41944;DHT22;27636;52.610;13.244;2022-11-03T00:42:12;3.60;99.90
41944;DHT22;27636;52.610;13.244;2022-11-03T00:47:15;3.60;99.90
41944;DHT22;27636;52.610;13.244;2022-11-03T00:52:24;3.60;99.90
41944;DHT22;27636;52.610;13.244;2022-11-03T00:57:28;3.70;99.90
41944;DHT22;27636;52.610;13.244;2022-11-03T01:02:31;3.70;99.90
41944;DHT22;27636;52.610;13.244;2022-11-03T01:07:35;3.70;99.90
41944;DHT22;27636;52.610;13.244;2022-11-03T01:12:39;3.70;99.90
41944;DHT22;27636;52.610;13.244;2022-11-03T01:17:42;3.60;99.90
41944;DHT22;27636;52.610;13.244;2022-11-03T01:22:46;3.60;99.90
41944;DHT22;27636;52.610;13.244;2022-11-03T01:27:49;3.50;99.90
41944;DHT22;27636;52.610;13.244;2022-11-03T01:32:53;3.40;99.90
41944;DHT22;27636;52.610;13.244;2022-11-03T01:37:57;3.30;99.90
41944;DHT22;27636;52.610;13.244;2022-11-03T01:43:16;3.30;99.90
41944;DHT22;27636;52.610;13.244;2022-11-03T01:48:21;3.40;99.90
41944;DHT22;27636;52.610;13.244;2022-11-03T01:53:26;3.50;99.90
41944;DHT22;27636;52.610;13.244;2022-11-03T01:58:33;3.60;99.90
41944;DHT22;27636;52.610;13.244;2022-11-03T02:03:41;3.80;99.90
41944;DHT22;27636;52.610;13.244;2022-11-03T02:08:49;3.90;99.90
41944;DHT22;27636;52.610;13.244;2022-11-03T02:13:54;3.90;99.90
41944;DHT22;27636;52.610;13.244;2022-11-03T02:18:59;3.80;99.90
41944;DHT22;27636;52.610;13.244;2022-11-03T02:24:11;3.90;99.90
41944;DHT22;27636;52.610;13.244;2022-11-03T02:29:17;3.80;99.90
41944;DHT22;27636;52.610;13.244;2022-11-03T02:34:23;3.90;99.90
41944;DHT22;27636;52.610;13.244;2022-11-03T02:39:33;4.20;99.90
41944;DHT22;27636;52.610;13.244;2022-11-03T02:44:41;4.40;99.90
41944;DHT22;27636;52.610;13.244;2022-11-03T02:49:46;4.50;99.90
41944;DHT22;27636;52.610;13.244;2022-11-03T02:54:49;4.60;99.90
41944;DHT22;27636;52.610;13.244;2022-11-03T03:00:01;4.70;99.90
41944;DHT22;27636;52.610;13.244;2022-11-03T03:05:10;4.90;99.90
41944;DHT22;27636;52.610;13.244;2022-11-03T03:10:15;4.80;99.90
41944;DHT22;27636;52.610;13.244;2022-11-03T03:15:24;4.80;99.90
41944;DHT22;27636;52.610;13.244;2022-11-03T03:20:32;4.90;99.90
41944;DHT22;27636;52.610;13.244;2022-11-03T03:25:39;4.80;99.90
41944;DHT22;27636;52.610;13.244;2022-11-03T03:30:45;4.90;99.90
41944;DHT22;27636;52.610;13.244;2022-11-03T03:35:50;4.80;99.90
41944;DHT22;27636;52.610;13.244;2022-11-03T03:40:54;4.80;99.90
41944;DHT22;27636;52.610;13.244;2022-11-03T03:46:04;4.80;99.90
41944;DHT22;27636;52.610;13.244;2022-11-03T03:51:08;4.70;99.90
41944;DHT22;27636;52.610;13.244;2022-11-03T03:56:12;4.70;99.90
41944;DHT22;27636;52.610;13.244;2022-11-03T04:01:17;4.60;99.90
41944;DHT22;27636;52.610;13.244;2022-11-03T04:06:20;4.60;99.90
41944;DHT22;27636;52.610;13.244;2022-11-03T04:11:23;4.40;99.90
41944;DHT22;27636;52.610;13.244;2022-11-03T04:16:46;4.40;99.90
41944;DHT22;27636;52.610;13.244;2022-11-03T04:22:09;4.40;99.90
41944;DHT22;27636;52.610;13.244;2022-11-03T04:27:28;4.40;99.90
41944;DHT22;27636;52.610;13.244;2022-11-03T04:32:33;4.50;99.90
41944;DHT22;27636;52.610;13.244;2022-11-03T04:37:36;4.50;99.90
41944;DHT22;27636;52.610;13.244;2022-11-03T04:42:40;4.40;99.90
41944;DHT22;27636;52.610;13.244;2022-11-03T04:47:44;4.60;99.90
41944;DHT22;27636;52.610;13.244;2022-11-03T04:52:48;4.60;99.90
41944;DHT22;27636;52.610;13.244;2022-11-03T04:57:56;4.50;99.90
41944;DHT22;27636;52.610;13.244;2022-11-03T05:03:01;4.40;99.90
41944;DHT22;27636;52.610;13.244;2022-11-03T05:08:07;4.60;99.90
41944;DHT22;27636;52.610;13.244;2022-11-03T05:13:16;4.80;99.90
41944;DHT22;27636;52.610;13.244;2022-11-03T05:18:25;4.90;99.90
41944;DHT22;27636;52.610;13.244;2022-11-03T05:23:35;5.00;99.90
41944;DHT22;27636;52.610;13.244;2022-11-03T05:28:42;4.90;99.90
41944;DHT22;27636;52.610;13.244;2022-11-03T05:33:48;4.90;99.90
41944;DHT22;27636;52.610;13.244;2022-11-03T05:38:55;5.00;99.90
41944;DHT22;27636;52.610;13.244;2022-11-03T05:44:18;5.20;99.90
41944;DHT22;27636;52.610;13.244;2022-11-03T05:49:28;5.20;99.90
41944;DHT22;27636;52.610;13.244;2022-11-03T05:54:33;5.10;99.90
41944;DHT22;27636;52.610;13.244;2022-11-03T05:59:37;5.00;99.90
41944;DHT22;27636;52.610;13.244;2022-11-03T06:04:41;5.20;99.90
41944;DHT22;27636;52.610;13.244;2022-11-03T06:09:44;5.10;99.90
41944;DHT22;27636;52.610;13.244;2022-11-03T06:14:48;5.00;99.90
41944;DHT22;27636;52.610;13.244;2022-11-03T06:19:53;4.90;99.90
41944;DHT22;27636;52.610;13.244;2022-11-03T06:24:59;5.00;99.90
41944;DHT22;27636;52.610;13.244;2022-11-03T06:30:19;5.20;99.90
41944;DHT22;27636;52.610;13.244;2022-11-03T06:35:25;5.30;99.90
41944;DHT22;27636;52.610;13.244;2022-11-03T06:40:33;5.60;99.90
41944;DHT22;27636;52.610;13.244;2022-11-03T06:45:36;5.70;99.90
41944;DHT22;27636;52.610;13.244;2022-11-03T06:50:41;5.70;99.90
41944;DHT22;27636;52.610;13.244;2022-11-03T06:55:47;5.60;99.90
41944;DHT22;27636;52.610;13.244;2022-11-03T07:00:51;5.70;99.90
41944;DHT22;27636;52.610;13.244;2022-11-03T07:05:58;5.80;99.90
41944;DHT22;27636;52.610;13.244;2022-11-03T07:11:06;5.90;99.90
41944;DHT22;27636;52.610;13.244;2022-11-03T07:16:13;6.10;99.90
41944;DHT22;27636;52.610;13.244;2022-11-03T07:21:31;6.40;99.90
41944;DHT22;27636;52.610;13.244;2022-11-03T07:26:35;6.70;99.90
41944;DHT22;27636;52.610;13.244;2022-11-03T07:31:38;7.00;99.90
41944;DHT22;27636;52.610;13.244;2022-11-03T07:36:43;7.20;99.90
41944;DHT22;27636;52.610;13.244;2022-11-03T07:41:46;7.50;99.90
41944;DHT22;27636;52.610;13.244;2022-11-03T07:46:50;7.70;99.90
41944;DHT22;27636;52.610;13.244;2022-11-03T07:51:56;8.00;99.90
41944;DHT22;27636;52.610;13.244;2022-11-03T07:57:02;8.20;99.90
41944;DHT22;27636;52.610;13.244;2022-11-03T08:02:22;8.30;99.90
41944;DHT22;27636;52.610;13.244;2022-11-03T08:07:28;8.60;99.90
41944;DHT22;27636;52.610;13.244;2022-11-03T08:12:31;8.60;99.90
41944;DHT22;27636;52.610;13.244;2022-11-03T08:17:34;8.60;99.90
41944;DHT22;27636;52.610;13.244;2022-11-03T08:22:39;8.70;99.90
41944;DHT22;27636;52.610;13.244;2022-11-03T08:27:51;9.30;99.90
41944;DHT22;27636;52.610;13.244;2022-11-03T08:32:55;10.70;99.90
41944;DHT22;27636;52.610;13.244;2022-11-03T08:37:59;12.40;99.90
41944;DHT22;27636;52.610;13.244;2022-11-03T08:43:02;13.30;99.90
41944;DHT22;27636;52.610;13.244;2022-11-03T08:48:06;14.30;99.90
41944;DHT22;27636;52.610;13.244;2022-11-03T08:53:12;14.60;99.90
41944;DHT22;27636;52.610;13.244;2022-11-03T08:58:15;15.20;97.90
41944;DHT22;27636;52.610;13.244;2022-11-03T09:03:18;15.70;95.90
41944;DHT22;27636;52.610;13.244;2022-11-03T09:08:23;15.00;96.20
41944;DHT22;27636;52.610;13.244;2022-11-03T09:13:46;15.60;94.80
41944;DHT22;27636;52.610;13.244;2022-11-03T09:18:49;15.60;93.90
41944;DHT22;27636;52.610;13.244;2022-11-03T09:23:54;15.40;94.00
41944;DHT22;27636;52.610;13.244;2022-11-03T09:28:57;15.10;93.10
41944;DHT22;27636;52.610;13.244;2022-11-03T09:34:00;14.60;94.80
41944;DHT22;27636;52.610;13.244;2022-11-03T09:39:05;13.80;96.60
41944;DHT22;27636;52.610;13.244;2022-11-03T09:44:08;13.10;99.40
41944;DHT22;27636;52.610;13.244;2022-11-03T09:49:13;12.40;99.90
41944;DHT22;27636;52.610;13.244;2022-11-03T09:54:19;12.30;99.90
41944;DHT22;27636;52.610;13.244;2022-11-03T09:59:22;12.80;99.90
41944;DHT22;27636;52.610;13.244;2022-11-03T10:04:27;13.00;99.90
41944;DHT22;27636;52.610;13.244;2022-11-03T10:09:33;12.90;99.90
41944;DHT22;27636;52.610;13.244;2022-11-03T10:14:36;12.70;99.90
41944;DHT22;27636;52.610;13.244;2022-11-03T10:19:39;12.70;99.90
41944;DHT22;27636;52.610;13.244;2022-11-03T10:24:44;12.90;99.90
41944;DHT22;27636;52.610;13.244;2022-11-03T10:30:04;13.10;99.90
41944;DHT22;27636;52.610;13.244;2022-11-03T10:35:30;13.60;99.80
41944;DHT22;27636;52.610;13.244;2022-11-03T10:40:37;13.50;99.30
41944;DHT22;27636;52.610;13.244;2022-11-03T10:46:09;13.30;98.80
41944;DHT22;27636;52.610;13.244;2022-11-03T10:51:34;13.40;99.90
41944;DHT22;27636;52.610;13.244;2022-11-03T10:56:38;13.30;99.80
41944;DHT22;27636;52.610;13.244;2022-11-03T11:01:42;13.40;99.70
41944;DHT22;27636;52.610;13.244;2022-11-03T11:06:46;13.50;99.00
41944;DHT22;27636;52.610;13.244;2022-11-03T11:12:01;13.50;99.60
41944;DHT22;27636;52.610;13.244;2022-11-03T11:17:04;13.60;99.40
41944;DHT22;27636;52.610;13.244;2022-11-03T11:22:12;13.70;99.40
41944;DHT22;27636;52.610;13.244;2022-11-03T11:33:21;13.70;99.30
41944;DHT22;27636;52.610;13.244;2022-11-03T11:44:39;13.50;99.60
41944;DHT22;27636;52.610;13.244;2022-11-03T11:49:43;13.40;99.90
41944;DHT22;27636;52.610;13.244;2022-11-03T11:54:46;13.30;99.90
41944;DHT22;27636;52.610;13.244;2022-11-03T11:59:50;13.50;99.90
41944;DHT22;27636;52.610;13.244;2022-11-03T12:04:57;13.50;99.90
41944;DHT22;27636;52.610;13.244;2022-11-03T12:10:06;13.40;99.90
41944;DHT22;27636;52.610;13.244;2022-11-03T12:20:52;13.50;99.90
41944;DHT22;27636;52.610;13.244;2022-11-03T12:25:55;13.30;99.90
41944;DHT22;27636;52.610;13.244;2022-11-03T12:30:59;13.40;99.90
41944;DHT22;27636;52.610;13.244;2022-11-03T12:36:09;13.40;99.90
41944;DHT22;27636;52.610;13.244;2022-11-03T12:41:12;13.40;99.90
41944;DHT22;27636;52.610;13.244;2022-11-03T12:46:24;13.40;99.90
41944;DHT22;27636;52.610;13.244;2022-11-03T12:51:29;13.30;99.90
41944;DHT22;27636;52.610;13.244;2022-11-03T12:56:32;13.30;99.90
41944;DHT22;27636;52.610;13.244;2022-11-03T13:01:35;13.40;99.90
41944;DHT22;27636;52.610;13.244;2022-11-03T13:06:41;13.50;99.90
41944;DHT22;27636;52.610;13.244;2022-11-03T13:11:44;13.40;99.90
41944;DHT22;27636;52.610;13.244;2022-11-03T13:17:06;13.40;99.90
41944;DHT22;27636;52.610;13.244;2022-11-03T13:22:10;13.40;99.90
41944;DHT22;27636;52.610;13.244;2022-11-03T13:27:14;13.20;99.90
41944;DHT22;27636;52.610;13.244;2022-11-03T13:32:17;13.40;99.90
41944;DHT22;27636;52.610;13.244;2022-11-03T13:37:22;13.70;99.90
41944;DHT22;27636;52.610;13.244;2022-11-03T13:42:25;13.60;99.90
41944;DHT22;27636;52.610;13.244;2022-11-03T13:47:28;13.50;99.90
41944;DHT22;27636;52.610;13.244;2022-11-03T13:52:53;13.20;99.90
41944;DHT22;27636;52.610;13.244;2022-11-03T13:57:57;12.90;99.90
41944;DHT22;27636;52.610;13.244;2022-11-03T14:03:20;12.80;99.90
41944;DHT22;27636;52.610;13.244;2022-11-03T14:08:45;12.50;99.90
41944;DHT22;27636;52.610;13.244;2022-11-03T14:13:48;12.60;99.90
41944;DHT22;27636;52.610;13.244;2022-11-03T14:18:52;12.50;99.90
41944;DHT22;27636;52.610;13.244;2022-11-03T14:23:57;12.30;99.90
41944;DHT22;27636;52.610;13.244;2022-11-03T14:29:00;12.20;99.90
41944;DHT22;27636;52.610;13.244;2022-11-03T14:34:03;12.20;99.90
41944;DHT22;27636;52.610;13.244;2022-11-03T14:39:08;12.20;99.90
41944;DHT22;27636;52.610;13.244;2022-11-03T14:44:11;12.20;99.90
41944;DHT22;27636;52.610;13.244;2022-11-03T14:49:14;12.00;99.90
41944;DHT22;27636;52.610;13.244;2022-11-03T14:54:19;11.90;99.90
41944;DHT22;27636;52.610;13.244;2022-11-03T14:59:23;11.90;99.90
41944;DHT22;27636;52.610;13.244;2022-11-03T15:04:27;11.70;99.90
41944;DHT22;27636;52.610;13.244;2022-11-03T15:09:32;11.80;99.90
41944;DHT22;27636;52.610;13.244;2022-11-03T15:14:35;11.60;99.90
41944;DHT22;27636;52.610;13.244;2022-11-03T15:19:38;11.50;99.90
41944;DHT22;27636;52.610;13.244;2022-11-03T15:24:42;11.30;99.90
41944;DHT22;27636;52.610;13.244;2022-11-03T15:30:07;11.30;99.90
41944;DHT22;27636;52.610;13.244;2022-11-03T15:35:10;11.10;99.90
41944;DHT22;27636;52.610;13.244;2022-11-03T15:40:16;11.00;99.90
41944;DHT22;27636;52.610;13.244;2022-11-03T15:45:19;10.90;99.90
41944;DHT22;27636;52.610;13.244;2022-11-03T15:50:22;10.90;99.90
41944;DHT22;27636;52.610;13.244;2022-11-03T15:55:27;10.90;99.90
41944;DHT22;27636;52.610;13.244;2022-11-03T16:00:30;10.90;99.90
41944;DHT22;27636;52.610;13.244;2022-11-03T16:05:34;10.70;99.90
41944;DHT22;27636;52.610;13.244;2022-11-03T16:10:38;10.60;99.90
41944;DHT22;27636;52.610;13.244;2022-11-03T16:15:52;10.80;99.90
41944;DHT22;27636;52.610;13.244;2022-11-03T16:20:56;10.70;99.90
41944;DHT22;27636;52.610;13.244;2022-11-03T16:26:01;10.90;99.90
41944;DHT22;27636;52.610;13.244;2022-11-03T16:31:06;10.90;99.90
41944;DHT22;27636;52.610;13.244;2022-11-03T16:36:09;11.00;99.90
41944;DHT22;27636;52.610;13.244;2022-11-03T16:41:14;11.00;99.90
41944;DHT22;27636;52.610;13.244;2022-11-03T16:46:17;11.00;99.90
41944;DHT22;27636;52.610;13.244;2022-11-03T16:51:21;11.00;99.90
41944;DHT22;27636;52.610;13.244;2022-11-03T16:56:25;11.10;99.90
41944;DHT22;27636;52.610;13.244;2022-11-03T17:01:28;11.00;99.90
41944;DHT22;27636;52.610;13.244;2022-11-03T17:06:31;11.00;99.90
41944;DHT22;27636;52.610;13.244;2022-11-03T17:11:36;10.90;99.90
41944;DHT22;27636;52.610;13.244;2022-11-03T17:16:39;11.00;99.90
41944;DHT22;27636;52.610;13.244;2022-11-03T17:21:50;11.10;99.90
41944;DHT22;27636;52.610;13.244;2022-11-03T17:26:56;11.00;99.90
41944;DHT22;27636;52.610;13.244;2022-11-03T17:32:01;11.30;99.90
41944;DHT22;27636;52.610;13.244;2022-11-03T17:37:04;11.30;99.90
41944;DHT22;27636;52.610;13.244;2022-11-03T17:42:17;11.10;99.90
41944;DHT22;27636;52.610;13.244;2022-11-03T17:47:21;11.30;99.90
41944;DHT22;27636;52.610;13.244;2022-11-03T17:52:27;11.30;99.90
41944;DHT22;27636;52.610;13.244;2022-11-03T17:57:32;11.30;99.90
41944;DHT22;27636;52.610;13.244;2022-11-03T18:02:36;11.30;99.90
41944;DHT22;27636;52.610;13.244;2022-11-03T18:07:42;11.30;99.90
41944;DHT22;27636;52.610;13.244;2022-11-03T18:12:47;11.30;99.90
41944;DHT22;27636;52.610;13.244;2022-11-03T18:18:13;11.30;99.90
41944;DHT22;27636;52.610;13.244;2022-11-03T18:23:18;11.10;99.90
41944;DHT22;27636;52.610;13.244;2022-11-03T18:28:24;11.10;99.90
41944;DHT22;27636;52.610;13.244;2022-11-03T18:33:30;11.20;99.90
41944;DHT22;27636;52.610;13.244;2022-11-03T18:38:35;11.10;99.90
41944;DHT22;27636;52.610;13.244;2022-11-03T18:43:40;11.10;99.90
41944;DHT22;27636;52.610;13.244;2022-11-03T18:48:44;11.00;99.90
41944;DHT22;27636;52.610;13.244;2022-11-03T18:53:47;10.90;99.90
41944;DHT22;27636;52.610;13.244;2022-11-03T18:58:54;10.90;99.90
41944;DHT22;27636;52.610;13.244;2022-11-03T19:03:58;10.90;99.90
41944;DHT22;27636;52.610;13.244;2022-11-03T19:09:01;10.70;99.90
41944;DHT22;27636;52.610;13.244;2022-11-03T19:14:06;10.80;99.90
41944;DHT22;27636;52.610;13.244;2022-11-03T19:19:11;10.90;99.90
41944;DHT22;27636;52.610;13.244;2022-11-03T19:24:14;10.90;99.90
41944;DHT22;27636;52.610;13.244;2022-11-03T19:29:27;10.70;99.90
41944;DHT22;27636;52.610;13.244;2022-11-03T19:34:32;10.70;99.90
41944;DHT22;27636;52.610;13.244;2022-11-03T19:39:38;10.70;99.90
41944;DHT22;27636;52.610;13.244;2022-11-03T19:44:43;10.70;99.90
41944;DHT22;27636;52.610;13.244;2022-11-03T19:49:47;10.70;99.90
41944;DHT22;27636;52.610;13.244;2022-11-03T19:54:50;10.50;99.90
41944;DHT22;27636;52.610;13.244;2022-11-03T19:59:55;10.40;99.90
41944;DHT22;27636;52.610;13.244;2022-11-03T20:05:01;10.30;99.90
41944;DHT22;27636;52.610;13.244;2022-11-03T20:10:05;10.20;99.90
41944;DHT22;27636;52.610;13.244;2022-11-03T20:15:14;10.10;99.90
41944;DHT22;27636;52.610;13.244;2022-11-03T20:20:20;10.00;99.90
41944;DHT22;27636;52.610;13.244;2022-11-03T20:25:26;9.80;99.90
41944;DHT22;27636;52.610;13.244;2022-11-03T20:30:31;9.80;99.90
41944;DHT22;27636;52.610;13.244;2022-11-03T20:35:34;9.70;99.90
41944;DHT22;27636;52.610;13.244;2022-11-03T20:40:39;9.70;99.90
41944;DHT22;27636;52.610;13.244;2022-11-03T20:45:44;9.70;99.90
41944;DHT22;27636;52.610;13.244;2022-11-03T20:50:48;9.70;99.90
41944;DHT22;27636;52.610;13.244;2022-11-03T20:55:51;9.50;99.90
41944;DHT22;27636;52.610;13.244;2022-11-03T21:00:56;9.50;99.90
41944;DHT22;27636;52.610;13.244;2022-11-03T21:05:59;9.50;99.90
41944;DHT22;27636;52.610;13.244;2022-11-03T21:11:08;9.50;99.90
41944;DHT22;27636;52.610;13.244;2022-11-03T21:16:30;9.50;99.90
41944;DHT22;27636;52.610;13.244;2022-11-03T21:21:51;9.20;99.90
41944;DHT22;27636;52.610;13.244;2022-11-03T21:26:54;9.40;99.90
41944;DHT22;27636;52.610;13.244;2022-11-03T21:31:59;9.20;99.90
41944;DHT22;27636;52.610;13.244;2022-11-03T21:37:02;9.00;99.90
41944;DHT22;27636;52.610;13.244;2022-11-03T21:42:08;8.80;99.90
41944;DHT22;27636;52.610;13.244;2022-11-03T21:47:41;8.70;99.90
41944;DHT22;27636;52.610;13.244;2022-11-03T21:53:04;9.00;99.90
41944;DHT22;27636;52.610;13.244;2022-11-03T21:58:09;8.90;99.90
41944;DHT22;27636;52.610;13.244;2022-11-03T22:03:13;8.90;99.90
41944;DHT22;27636;52.610;13.244;2022-11-03T22:08:17;8.90;99.90
41944;DHT22;27636;52.610;13.244;2022-11-03T22:13:20;8.80;99.90
41944;DHT22;27636;52.610;13.244;2022-11-03T22:18:24;8.80;99.90
41944;DHT22;27636;52.610;13.244;2022-11-03T22:23:27;8.90;99.90
41944;DHT22;27636;52.610;13.244;2022-11-03T22:28:49;8.90;99.90
41944;DHT22;27636;52.610;13.244;2022-11-03T22:34:15;9.00;99.90
41944;DHT22;27636;52.610;13.244;2022-11-03T22:39:37;9.00;99.90
41944;DHT22;27636;52.610;13.244;2022-11-03T22:44:58;9.30;99.90
41944;DHT22;27636;52.610;13.244;2022-11-03T22:50:22;9.30;99.90
41944;DHT22;27636;52.610;13.244;2022-11-03T22:55:25;9.40;99.90
41944;DHT22;27636;52.610;13.244;2022-11-03T23:00:28;9.30;99.90
41944;DHT22;27636;52.610;13.244;2022-11-03T23:05:33;9.20;99.90
41944;DHT22;27636;52.610;13.244;2022-11-03T23:10:36;9.20;99.90
41944;DHT22;27636;52.610;13.244;2022-11-03T23:15:39;9.10;99.90
41944;DHT22;27636;52.610;13.244;2022-11-03T23:20:47;9.20;99.90
41944;DHT22;27636;52.610;13.244;2022-11-03T23:26:08;8.90;99.90
41944;DHT22;27636;52.610;13.244;2022-11-03T23:31:12;8.70;99.90
41944;DHT22;27636;52.610;13.244;2022-11-03T23:36:17;8.70;99.90
41944;DHT22;27636;52.610;13.244;2022-11-03T23:41:20;8.60;99.90
41944;DHT22;27636;52.610;13.244;2022-11-03T23:46:26;8.80;99.90
41944;DHT22;27636;52.610;13.244;2022-11-03T23:51:50;8.60;99.90
41944;DHT22;27636;52.610;13.244;2022-11-03T23:56:53;8.60;99.90
